1856 Hurricane NOT_NAMED (1856254N09333)


IBTrACS version v04r00. Visit IBTrACS website for data access.
Please direct all questions to the IBTrACS Q and A forum

Storm track - Intensity - Wind Radii - Intensity Data - Source Data - All data

Summary Information

Storm ID 1856254N09333
Start Sep 10 06Z
Max Intensity 80 kt (Sep 15 00Z), 992 mb (Sep 21 00Z)
End Sep 22 18Z
ATCF IDs ,AL061856
Track status Best track data.

Storm track plot

Map of storm track

Intensity plots

Map of storm track

Radial wind information

No radial wind information for this storm


Position and Intensity Table

BASIN ISO_TIME_________ NATURE LAT LON WMO WIND USA WIND MLC WIND MLC PRES
degrees north degrees east kts kts kts mb
NA 1856-09-10 06:00:00 TS 9.00 -27.00 30
NA 09:00:00 TS 9.50 -27.50 30
NA 12:00:00 TS 10.00 -28.00 30
NA 15:00:00 TS 10.50 -28.50 30
NA 18:00:00 TS 11.00 -29.00 30
NA 21:00:00 TS 11.50 -29.50 35
NA 1856-09-11 00:00:00 TS 12.00 -30.00 40
NA 03:00:00 TS 12.49 -30.50 42
NA 06:00:00 TS 13.00 -31.00 45 1002
NA 09:00:00 TS 13.54 -31.50 45
NA 12:00:00 TS 14.10 -32.00 45
NA 15:00:00 TS 14.65 -32.49 47
NA 18:00:00 TS 15.20 -33.00 50
NA 21:00:00 TS 15.75 -33.55 50
NA 1856-09-12 00:00:00 TS 16.30 -34.10 50
NA 03:00:00 TS 16.85 -34.61 52
NA 06:00:00 TS 17.40 -35.10 55
NA 09:00:00 TS 17.95 -35.59 55
NA 12:00:00 TS 18.50 -36.10 55
NA 15:00:00 TS 19.05 -36.65 55
NA 18:00:00 TS 19.60 -37.20 55
NA 21:00:00 TS 20.16 -37.71 55
NA 1856-09-13 00:00:00 TS 20.70 -38.20 55
NA 03:00:00 TS 21.21 -38.70 57
NA 06:00:00 TS 21.70 -39.20 60
NA 09:00:00 TS 22.24 -39.70 60
NA 12:00:00 TS 22.70 -40.20 60
NA 15:00:00 TS 22.99 -40.71 60
NA 18:00:00 TS 23.20 -41.20 60
NA 21:00:00 TS 23.41 -41.65 60
NA 1856-09-14 00:00:00 TS 23.60 -42.10 60
NA 03:00:00 TS 23.79 -42.60 60
NA 06:00:00 TS 24.00 -43.10 60
NA 09:00:00 TS 24.22 -43.55 65
NA 12:00:00 TS 24.50 -44.00 70
NA 15:00:00 TS 24.87 -44.49 72
NA 18:00:00 TS 25.30 -45.00 75
NA 21:00:00 TS 25.75 -45.50 77
NA 1856-09-15 00:00:00 TS 26.20 -46.00 80
NA 03:00:00 TS 26.61 -46.50 80
NA 06:00:00 TS 27.00 -47.00 80
NA 09:00:00 TS 27.39 -47.54 80
NA 12:00:00 TS 27.80 -48.00 80
NA 15:00:00 TS 28.24 -48.30 80
NA 18:00:00 TS 28.70 -48.50 80
NA 21:00:00 TS 29.19 -48.71 80
NA 1856-09-16 00:00:00 TS 29.60 -48.90 80
NA 03:00:00 TS 29.84 -49.10 80
NA 06:00:00 TS 30.00 -49.30 80
NA 09:00:00 TS 30.20 -49.54 80
NA 12:00:00 TS 30.40 -49.70 80
NA 15:00:00 TS 30.60 -49.69 80
NA 18:00:00 TS 30.80 -49.60 80
NA 21:00:00 TS 31.00 -49.56 80
NA 1856-09-17 00:00:00 TS 31.20 -49.50 80
NA 03:00:00 TS 31.40 -49.41 77
NA 06:00:00 TS 31.60 -49.30 75
NA 09:00:00 TS 31.83 -49.17 75
NA 12:00:00 TS 32.00 -49.00 75
NA 15:00:00 TS 32.03 -48.81 75
NA 18:00:00 TS 32.00 -48.60 75
NA 21:00:00 TS 32.00 -48.39 72
NA 1856-09-18 00:00:00 TS 32.00 -48.40 50 50 70
NA 03:00:00 TS 32.13 -48.45 50 70
NA 06:00:00 TS 32.30 -48.50 50 50 70
NA 09:00:00 TS 32.46 -48.53 50 70
NA 12:00:00 TS 32.60 -48.50 50 50 70
NA 15:00:00 TS 32.85 -48.62 50 70
NA 18:00:00 TS 33.22 -48.86 50 50 70
NA 21:00:00 TS 33.79 -49.23 55
NA 1856-09-19 00:00:00 TS 34.50 -49.80 60 60
NA 03:00:00 TS 34.90 -50.15 60
NA 06:00:00 TS 35.20 -50.50 60 60
NA 09:00:00 TS 35.44 -50.77 65
NA 12:00:00 TS 35.60 -51.00 70 70
NA 15:00:00 TS 35.71 -51.22 70
NA 18:00:00 TS 35.80 -51.40 70 70
NA 21:00:00 TS 35.91 -51.56 70
NA 1856-09-20 00:00:00 TS 36.00 -51.70 70 70
NA 03:00:00 TS 36.06 -51.85 70
NA 06:00:00 TS 36.10 -52.00 70 70
NA 09:00:00 TS 36.15 -52.16 70
NA 12:00:00 TS 36.20 -52.30 70 70
NA 15:00:00 TS 36.25 -52.37 70
NA 18:00:00 TS 36.30 -52.40 70 70
NA 21:00:00 TS 36.35 -52.45 65
NA 1856-09-21 00:00:00 TS 36.28 -52.33 60 60 65 992
NA 03:00:00 TS 36.33 -52.32 60 65
NA 06:00:00 TS 36.47 -52.33 60 60 65
NA 09:00:00 TS 36.66 -52.41 60 65
NA 12:00:00 TS 36.83 -52.53 60 60 65
NA 15:00:00 TS 36.99 -52.58 60 65
NA 18:00:00 TS 37.13 -52.60 60 60 65
NA 21:00:00 TS 37.13 -52.67 60 65
NA 1856-09-22 00:00:00 TS 37.04 -52.76 60 60 65
NA 03:00:00 TS 36.84 -52.87 60
NA 06:00:00 TS 36.50 -53.00 60 60
NA 09:00:00 TS 36.50 -53.01 60
NA 12:00:00 TS 36.50 -53.00 60 60
NA 15:00:00 TS 36.50 -53.00 60
NA 18:00:00 TS 36.50 -53.00 60 60

Source Information

Agency Information
USA hurdat2-1851-2018-051019.txt:Line=537:UNNAMED
TOKYO
CMA
HKO
NEWDELHI
REUNION
BOM
NADI
WELLINGTON
DS824
TD9636
TD9635
NEUMANN
MLC

All available IBTrACS Data

SEASON BASIN SUBBASIN ISO_TIME_________ NATURE LAT LON WMO WIND WMO AGENCY DIST2LAND LANDFALL IFLAG USA AGENCY USA ATCF_ID USA LAT USA LON USA STATUS USA WIND USA SSHS MLC LAT MLC LON MLC CLASS MLC WIND MLC PRES STORM SPEED STORM DIR
Year degrees north degrees east kts km km degrees north degrees east kts 1 degrees north degrees east kts mb kts degrees
1856 NA NA 1856-09-10 06:00:00 TS 9.00 -27.00 1178 1178 _____________O -1 9.00 -27.00 TD 30 14 315
1856 NA NA 09:00:00 TS 9.50 -27.50 1213 1213 _____________P -1 9.50 -27.50 TD 30 14 315
1856 NA NA 12:00:00 TS 10.00 -28.00 1251 1251 _____________O -1 10.00 -28.00 TD 30 14 315
1856 NA NA 15:00:00 TS 10.50 -28.50 1283 1283 _____________P -1 10.50 -28.50 TD 30 14 315
1856 NA NA 18:00:00 TS 11.00 -29.00 1314 1314 _____________O -1 11.00 -29.00 TD 30 14 316
1856 NA NA 21:00:00 TS 11.50 -29.50 1348 1348 _____________P -1 11.50 -29.50 TD 35 14 316
1856 NA NA 1856-09-11 00:00:00 TS 12.00 -30.00 1386 1386 _____________O -1 12.00 -30.00 TS 40 14 315
1856 NA NA 03:00:00 TS 12.49 -30.50 1426 1426 _____________P -1 12.49 -30.50 TS 42 14 316
1856 NA NA 06:00:00 TS 13.00 -31.00 1470 1470 _____________O -1 13.00 -31.00 TS 45 1002 14 317
1856 NA NA 09:00:00 TS 13.54 -31.50 1516 1515 _____________P -1 13.54 -31.50 TS 45 15 319
1856 NA NA 12:00:00 TS 14.10 -32.00 1563 1563 _____________O -1 14.10 -32.00 TS 45 15 319
1856 NA NA 15:00:00 TS 14.65 -32.49 1614 1613 _____________P -1 14.65 -32.49 TS 47 15 319
1856 NA NA 18:00:00 TS 15.20 -33.00 1666 1666 _____________O -1 15.20 -33.00 TS 50 15 317
1856 NA NA 21:00:00 TS 15.75 -33.55 1731 1731 _____________P -1 15.75 -33.55 TS 50 15 316
1856 NA NA 1856-09-12 00:00:00 TS 16.30 -34.10 1787 1787 _____________O -1 16.30 -34.10 TS 50 15 317
1856 NA NA 03:00:00 TS 16.85 -34.61 1845 1845 _____________P -1 16.85 -34.61 TS 52 15 319
1856 NA NA 06:00:00 TS 17.40 -35.10 1904 1904 _____________O -1 17.40 -35.10 TS 55 15 319
1856 NA NA 09:00:00 TS 17.95 -35.59 1964 1964 _____________P -1 17.95 -35.59 TS 55 15 319
1856 NA NA 12:00:00 TS 18.50 -36.10 2004 2004 _____________O -1 18.50 -36.10 TS 55 15 318
1856 NA NA 15:00:00 TS 19.05 -36.65 2057 2056 _____________P -1 19.05 -36.65 TS 55 15 317
1856 NA NA 18:00:00 TS 19.60 -37.20 2100 2100 _____________O -1 19.60 -37.20 TS 55 15 318
1856 NA NA 21:00:00 TS 20.16 -37.71 2144 2144 _____________P -1 20.16 -37.71 TS 55 15 320
1856 NA NA 1856-09-13 00:00:00 TS 20.70 -38.20 2192 2192 _____________O -1 20.70 -38.20 TS 55 14 319
1856 NA NA 03:00:00 TS 21.21 -38.70 2240 2240 _____________P -1 21.21 -38.70 TS 57 14 317
1856 NA NA 06:00:00 TS 21.70 -39.20 2290 2290 _____________O -1 21.70 -39.20 TS 60 14 318
1856 NA NA 09:00:00 TS 22.24 -39.70 2337 2337 _____________P -1 22.24 -39.70 TS 60 14 317
1856 NA NA 12:00:00 TS 22.70 -40.20 2369 2363 _____________O -1 22.70 -40.20 TS 60 12 309
1856 NA NA 15:00:00 TS 22.99 -40.71 2366 2353 _____________P -1 22.99 -40.71 TS 60 10 299
1856 NA NA 18:00:00 TS 23.20 -41.20 2357 2350 _____________O -1 23.20 -41.20 TS 60 10 295
1856 NA NA 21:00:00 TS 23.41 -41.65 2348 2342 _____________P -1 23.41 -41.65 TS 60 9 296
1856 NA NA 1856-09-14 00:00:00 TS 23.60 -42.10 2346 2336 _____________O -1 23.60 -42.10 TS 60 10 294
1856 NA NA 03:00:00 TS 23.79 -42.60 2341 2331 _____________P -1 23.79 -42.60 TS 60 10 294
1856 NA NA 06:00:00 TS 24.00 -43.10 2336 2331 _____________O -1 24.00 -43.10 TS 60 10 296
1856 NA NA 09:00:00 TS 24.22 -43.55 2333 2333 _____________P -1 24.22 -43.55 TS 65 10 301
1856 NA NA 12:00:00 TS 24.50 -44.00 2333 2292 _____________O -1 24.50 -44.00 HU 70 11 307
1856 NA NA 15:00:00 TS 24.87 -44.49 2294 2257 _____________P -1 24.87 -44.49 HU 72 12 311
1856 NA NA 18:00:00 TS 25.30 -45.00 2257 2222 _____________O -1 25.30 -45.00 HU 75 13 314
1856 NA NA 21:00:00 TS 25.75 -45.50 2222 2192 _____________P -1 25.75 -45.50 HU 77 13 315
1856 NA NA 1856-09-15 00:00:00 TS 26.20 -46.00 2192 2161 _____________O -1 26.20 -46.00 HU 80 12 314
1856 NA NA 03:00:00 TS 26.61 -46.50 2161 2132 _____________P -1 26.61 -46.50 HU 80 12 312
1856 NA NA 06:00:00 TS 27.00 -47.00 2132 2100 _____________O -1 27.00 -47.00 HU 80 12 310
1856 NA NA 09:00:00 TS 27.39 -47.54 2105 2079 _____________P -1 27.39 -47.54 HU 80 12 312
1856 NA NA 12:00:00 TS 27.80 -48.00 2079 2072 _____________O -1 27.80 -48.00 HU 80 11 322
1856 NA NA 15:00:00 TS 28.24 -48.30 2074 2034 _____________P -1 28.24 -48.30 HU 80 10 334
1856 NA NA 18:00:00 TS 28.70 -48.50 2034 1976 _____________O -1 28.70 -48.50 HU 80 10 339
1856 NA NA 21:00:00 TS 29.19 -48.71 1976 1928 _____________P -1 29.19 -48.71 HU 80 10 339
1856 NA NA 1856-09-16 00:00:00 TS 29.60 -48.90 1928 1903 _____________O -1 29.60 -48.90 HU 80 7 332
1856 NA NA 03:00:00 TS 29.84 -49.10 1903 1878 _____________P -1 29.84 -49.10 HU 80 5 319
1856 NA NA 06:00:00 TS 30.00 -49.30 1878 1853 _____________O -1 30.00 -49.30 HU 80 5 314
1856 NA NA 09:00:00 TS 30.20 -49.54 1853 1828 _____________P -1 30.20 -49.54 HU 80 5 319
1856 NA NA 12:00:00 TS 30.40 -49.70 1828 1806 _____________O -1 30.40 -49.70 HU 80 4 342
1856 NA NA 15:00:00 TS 30.60 -49.69 1806 1785 _____________P -1 30.60 -49.69 HU 80 4 12
1856 NA NA 18:00:00 TS 30.80 -49.60 1785 1763 _____________O -1 30.80 -49.60 HU 80 4 15
1856 NA NA 21:00:00 TS 31.00 -49.56 1763 1743 _____________P -1 31.00 -49.56 HU 80 4 12
1856 NA NA 1856-09-17 00:00:00 TS 31.20 -49.50 1743 1722 _____________O -1 31.20 -49.50 HU 80 4 16
1856 NA NA 03:00:00 TS 31.40 -49.41 1722 1702 _____________P -1 31.40 -49.41 HU 77 4 23
1856 NA NA 06:00:00 TS 31.60 -49.30 1702 1682 _____________O -1 31.60 -49.30 HU 75 5 26
1856 NA NA 09:00:00 TS 31.83 -49.17 1682 1662 _____________P -1 31.83 -49.17 HU 75 5 33
1856 NA NA 12:00:00 TS 32.00 -49.00 1663 1663 _____________O -1 32.00 -49.00 HU 75 4 57
1856 NA NA 15:00:00 TS 32.03 -48.81 1667 1667 _____________P -1 32.03 -48.81 HU 75 3 90
1856 NA NA 18:00:00 TS 32.00 -48.60 1671 1671 _____________O -1 32.00 -48.60 HU 75 4 95
1856 NA NA 21:00:00 TS 32.00 -48.39 1675 1675 _____________P -1 32.00 -48.39 HU 72 2 90
1856 NA NA 1856-09-18 00:00:00 TS 32.00 -48.40 50 hurdat_atl 1675 1664 O____________O hurdat_atl AL061856 32.00 -48.80 TS 50 0 32.00 -48.20 HU 70 1 338
1856 NA NA 03:00:00 TS 32.13 -48.45 1662 1640 P____________P AL061856 32.27 -48.85 TS 50 0 32.00 -48.05 HU 70 3 344
1856 NA NA 06:00:00 TS 32.30 -48.50 50 hurdat_atl 1640 1619 O____________O hurdat_atl AL061856 32.50 -48.90 TS 50 0 32.00 -47.90 HU 70 3 351
1856 NA NA 09:00:00 TS 32.46 -48.53 1619 1608 P____________P AL061856 32.69 -48.94 TS 50 0 31.99 -47.71 HU 70 3 0
1856 NA NA 12:00:00 TS 32.60 -48.50 50 hurdat_atl 1608 1584 O____________O hurdat_atl AL061856 32.90 -49.00 TS 50 0 32.00 -47.50 HU 70 4 349
1856 NA NA 15:00:00 TS 32.85 -48.62 1573 1536 P____________P AL061856 33.15 -49.12 TS 50 0 32.04 -47.29 HU 70 7 334
1856 NA NA 18:00:00 TS 33.22 -48.86 50 hurdat_atl 1534 1463 O____________O hurdat_atl AL061856 33.50 -49.30 TS 50 0 32.10 -47.10 HU 70 11 332
1856 NA NA 21:00:00 TS 33.79 -49.23 1463 1376 P_____________ AL061856 33.99 -49.52 TS 55 0 HU 15 329
1856 NA NA 1856-09-19 00:00:00 TS 34.50 -49.80 60 hurdat_atl 1376 1327 O_____________ hurdat_atl AL061856 34.50 -49.80 TS 60 0 HU 13 326
1856 NA NA 03:00:00 TS 34.90 -50.15 1327 1288 P_____________ AL061856 34.90 -50.15 TS 60 0 HU 9 321
1856 NA NA 06:00:00 TS 35.20 -50.50 60 hurdat_atl 1288 1261 O_____________ hurdat_atl AL061856 35.20 -50.50 TS 60 0 HU 7 317
1856 NA NA 09:00:00 TS 35.44 -50.77 1261 1237 P_____________ AL061856 35.44 -50.77 TS 65 1 HU 6 315
1856 NA NA 12:00:00 TS 35.60 -51.00 70 hurdat_atl 1237 1223 O_____________ hurdat_atl AL061856 35.60 -51.00 HU 70 1 HU 5 308
1856 NA NA 15:00:00 TS 35.71 -51.22 1223 1210 P_____________ AL061856 35.71 -51.22 HU 70 1 HU 4 302
1856 NA NA 18:00:00 TS 35.80 -51.40 70 hurdat_atl 1210 1198 O_____________ hurdat_atl AL061856 35.80 -51.40 HU 70 1 HU 3 305
1856 NA NA 21:00:00 TS 35.91 -51.56 1197 1185 P_____________ AL061856 35.91 -51.56 HU 70 1 HU 3 309
1856 NA NA 1856-09-20 00:00:00 TS 36.00 -51.70 70 hurdat_atl 1185 1173 O_____________ hurdat_atl AL061856 36.00 -51.70 HU 70 1 HU 3 302
1856 NA NA 03:00:00 TS 36.06 -51.85 1173 1172 P_____________ AL061856 36.06 -51.85 HU 70 1 HU 3 292
1856 NA NA 06:00:00 TS 36.10 -52.00 70 hurdat_atl 1172 1171 O_____________ hurdat_atl AL061856 36.10 -52.00 HU 70 1 HU 3 290
1856 NA NA 09:00:00 TS 36.15 -52.16 1159 1159 P_____________ AL061856 36.15 -52.16 HU 70 1 HU 3 293
1856 NA NA 12:00:00 TS 36.20 -52.30 70 hurdat_atl 1159 1158 O_____________ hurdat_atl AL061856 36.20 -52.30 HU 70 1 HU 2 302
1856 NA NA 15:00:00 TS 36.25 -52.37 1158 1147 P_____________ AL061856 36.25 -52.37 HU 70 1 HU 1 323
1856 NA NA 18:00:00 TS 36.30 -52.40 70 hurdat_atl 1147 1136 O_____________ hurdat_atl AL061856 36.30 -52.40 HU 70 1 HU 1 327
1856 NA NA 21:00:00 TS 36.35 -52.45 1136 1147 P_____________ AL061856 36.35 -52.45 HU 65 1 HU 1 113
1856 NA NA 1856-09-21 00:00:00 TS 36.28 -52.33 60 hurdat_atl 1148 1148 O____________O hurdat_atl AL061856 36.40 -52.50 TS 60 0 35.30 -51.00 HU 65 992 1 99
1856 NA NA 03:00:00 TS 36.33 -52.32 1148 1125 P____________P AL061856 36.46 -52.55 TS 60 0 35.84 -51.30 HU 65 2 0
1856 NA NA 06:00:00 TS 36.47 -52.33 60 hurdat_atl 1125 1114 O____________O hurdat_atl AL061856 36.50 -52.60 TS 60 0 36.40 -51.60 HU 65 3 347
1856 NA NA 09:00:00 TS 36.66 -52.41 1103 1091 P____________P AL061856 36.51 -52.65 TS 60 0 36.97 -51.94 HU 65 4 336
1856 NA NA 12:00:00 TS 36.83 -52.53 60 hurdat_atl 1091 1068 O____________O hurdat_atl AL061856 36.50 -52.70 TS 60 0 37.50 -52.20 HU 65 4 338
1856 NA NA 15:00:00 TS 36.99 -52.58 1068 1057 P____________P AL061856 36.50 -52.75 TS 60 0 37.97 -52.25 HU 65 3 351
1856 NA NA 18:00:00 TS 37.13 -52.60 60 hurdat_atl 1057 1057 O____________O hurdat_atl AL061856 36.50 -52.80 TS 60 0 38.40 -52.20 HU 65 2 335
1856 NA NA 21:00:00 TS 37.13 -52.67 1057 1057 P____________P AL061856 36.50 -52.85 TS 60 0 38.81 -52.18 HU 65 2 234
1856 NA NA 1856-09-22 00:00:00 TS 37.04 -52.76 60 hurdat_atl 1068 1068 O____________O hurdat_atl AL061856 36.50 -52.90 TS 60 0 39.20 -52.20 HU 65 3 209
1856 NA NA 03:00:00 TS 36.84 -52.87 1090 1090 P_____________ AL061856 36.50 -52.96 TS 60 0 HU 6 200
1856 NA NA 06:00:00 TS 36.50 -53.00 60 hurdat_atl 1123 1123 O_____________ hurdat_atl AL061856 36.50 -53.00 TS 60 0 4 197
1856 NA NA 09:00:00 TS 36.50 -53.01 1123 1123 P_____________ AL061856 36.50 -53.01 TS 60 0 0 0
1856 NA NA 12:00:00 TS 36.50 -53.00 60 hurdat_atl 1123 1123 O_____________ hurdat_atl AL061856 36.50 -53.00 TS 60 0 0 0
1856 NA NA 15:00:00 TS 36.50 -53.00 1123 1123 P_____________ AL061856 36.50 -53.00 TS 60 0 0 0
1856 NA NA 18:00:00 TS 36.50 -53.00 60 hurdat_atl 1123 O_____________ hurdat_atl AL061856 36.50 -53.00 TS 60 0 0 0